Time;durP1;ratioP1;P1;durP2;ratioP2;P2;SDS_P1;SDS_P2;PMS_P1;PMS_P2;Temp;Humidity;BMP_temperature;BMP_pressure;BME280_temperature;BME280_humidity;BME280_pressure;Samples;Min_cycle;Max_cycle;Signal;HPM_P1;HPM_P2
2024/04/12 00:01:44;;;;;;;1.40;0.50;;;;;;;10.39;100.00;100901.41;106012;1257;61267;-53
2024/04/12 00:04:15;;;;;;;3.80;0.40;;;;;;;10.34;100.00;100896.39;106029;1262;73296;-55
2024/04/12 00:06:49;;;;;;;2.20;0.60;;;;;;;10.28;100.00;100892.07;105969;1259;66394;-55
2024/04/12 00:09:19;;;;;;;0.80;0.30;;;;;;;10.22;100.00;100895.46;106238;1257;72468;-57
2024/04/12 00:11:48;;;;;;;0.80;0.30;;;;;;;10.16;100.00;100892.73;106001;1259;61395;-54
2024/04/12 00:14:16;;;;;;;0.80;0.20;;;;;;;10.11;100.00;100893.59;106089;1257;60873;-55
2024/04/12 00:16:50;;;;;;;0.80;0.40;;;;;;;10.09;100.00;100889.54;106152;1271;74810;-56
2024/04/12 00:19:22;;;;;;;1.90;0.50;;;;;;;10.06;100.00;100886.73;106280;1259;68242;-56
2024/04/12 00:21:55;;;;;;;1.70;0.30;;;;;;;10.01;100.00;100882.41;106120;1259;73044;-56
2024/04/12 00:24:24;;;;;;;1.10;0.30;;;;;;;9.93;100.00;100884.77;106407;1257;60466;-54
2024/04/12 00:26:53;;;;;;;3.00;0.40;;;;;;;9.84;100.00;100889.50;106324;1257;60555;-56
2024/04/12 00:29:36;;;;;;;2.50;0.40;;;;;;;9.75;100.00;100889.02;106155;1260;73425;-55
2024/04/12 00:32:13;;;;;;;5.90;1.20;;;;;;;9.69;100.00;100890.11;107085;1259;67066;-55
2024/04/12 00:34:47;;;;;;;3.50;0.30;;;;;;;9.65;100.00;100891.28;106020;1257;71247;-54
2024/04/12 00:37:15;;;;;;;0.70;0.40;;;;;;;9.64;100.00;100887.20;106100;1255;62545;-58
2024/04/12 00:39:48;;;;;;;1.80;0.40;;;;;;;9.67;100.00;100886.58;106086;1257;60535;-55
2024/04/12 00:42:31;;;;;;;2.20;0.40;;;;;;;9.68;100.00;100890.30;105906;1260;73452;-55
2024/04/12 00:44:58;;;;;;;1.10;0.40;;;;;;;9.69;100.00;100892.61;105968;1260;67019;-58
2024/04/12 00:47:27;;;;;;;1.00;0.40;;;;;;;9.69;100.00;100888.30;107503;1259;72105;-54
2024/04/12 00:49:55;;;;;;;1.00;0.40;;;;;;;9.67;100.00;100888.37;106612;1256;61345;-56
2024/04/12 00:52:23;;;;;;;0.90;0.40;;;;;;;9.62;100.00;100889.55;106194;1257;61420;-57
2024/04/12 00:55:06;;;;;;;0.70;0.30;;;;;;;9.58;100.00;100887.88;106376;1256;72443;-55
2024/04/12 00:57:38;;;;;;;3.00;0.40;;;;;;;9.55;100.00;100888.66;106101;1260;64952;-55
2024/04/12 01:00:13;;;;;;;2.90;0.30;;;;;;;9.50;100.00;100890.06;106038;1269;72262;-54
2024/04/12 01:02:41;;;;;;;2.00;0.40;;;;;;;9.47;100.00;100886.54;106850;1257;60588;-55
2024/04/12 01:05:13;;;;;;;2.30;0.70;;;;;;;9.45;100.00;100887.13;106365;1260;60441;-55
2024/04/12 01:07:48;;;;;;;2.10;0.40;;;;;;;9.42;100.00;100886.87;105935;1259;74241;-57
2024/04/12 01:10:21;;;;;;;1.70;0.40;;;;;;;9.35;100.00;100884.89;107936;1259;65805;-57
2024/04/12 01:12:48;;;;;;;4.20;0.40;;;;;;;9.29;100.00;100887.73;106063;1260;72331;-56
2024/04/12 01:15:19;;;;;;;2.40;0.50;;;;;;;9.24;100.00;100887.68;105964;1273;60866;-55
2024/04/12 01:17:47;;;;;;;2.50;0.40;;;;;;;9.18;100.00;100882.98;106631;1259;60568;-56
2024/04/12 01:20:15;;;;;;;1.30;0.40;;;;;;;9.13;100.00;100882.23;106246;1257;74848;-55
2024/04/12 01:22:45;;;;;;;0.90;0.30;;;;;;;9.04;100.00;100882.08;106343;1260;66119;-55
2024/04/12 01:25:13;;;;;;;1.50;0.40;;;;;;;8.97;100.00;100881.70;105992;1261;73213;-55
2024/04/12 01:27:40;;;;;;;0.80;0.40;;;;;;;8.91;100.00;100879.89;106130;1259;62344;-56
2024/04/12 01:30:07;;;;;;;0.90;0.30;;;;;;;8.87;100.00;100877.83;105990;1259;61858;-58
2024/04/12 01:32:34;;;;;;;2.20;0.50;;;;;;;8.85;100.00;100875.00;106469;1256;74345;-54
2024/04/12 01:35:03;;;;;;;0.60;0.40;;;;;;;8.84;100.00;100874.85;105987;1259;65664;-56
2024/04/12 01:37:34;;;;;;;2.10;0.50;;;;;;;8.82;100.00;100878.70;106745;1260;71181;-56
2024/04/12 01:40:03;;;;;;;3.30;0.50;;;;;;;8.80;100.00;100884.80;106758;1259;61440;-56
2024/04/12 01:42:37;;;;;;;3.30;0.60;;;;;;;8.75;100.00;100885.10;106156;1259;61237;-59
2024/04/12 01:45:14;;;;;;;0.80;0.40;;;;;;;8.67;100.00;100886.55;106082;1259;75599;-57
2024/04/12 01:47:45;;;;;;;2.70;0.40;;;;;;;8.58;100.00;100882.97;106293;1256;67251;-57
2024/04/12 01:50:13;;;;;;;3.20;0.60;;;;;;;8.52;100.00;100884.01;106235;1260;72614;-58
2024/04/12 01:52:54;;;;;;;0.90;0.40;;;;;;;8.45;100.00;100883.25;106107;1263;61250;-57
2024/04/12 01:55:23;;;;;;;1.40;0.40;;;;;;;8.41;100.00;100881.02;106315;1269;61522;-56
2024/04/12 01:57:58;;;;;;;1.10;0.40;;;;;;;8.39;100.00;100880.00;106180;1259;73414;-55
2024/04/12 02:00:26;;;;;;;1.50;0.50;;;;;;;8.37;100.00;100877.88;106251;1259;66024;-55
2024/04/12 02:02:54;;;;;;;2.20;0.60;;;;;;;8.34;100.00;100878.48;108965;1255;72355;-57
2024/04/12 02:05:32;;;;;;;1.60;0.40;;;;;;;8.31;100.00;100878.37;107504;1258;61624;-58
2024/04/12 02:08:16;;;;;;;1.70;0.30;;;;;;;8.28;100.00;100879.11;108985;1259;59150;-53
2024/04/12 02:10:44;;;;;;;7.30;1.20;;;;;;;8.29;100.00;100879.45;109123;1256;74302;-55
2024/04/12 02:13:17;;;;;;;1.20;0.30;;;;;;;8.29;100.00;100878.20;108777;1257;67107;-54
2024/04/12 02:15:45;;;;;;;1.60;0.40;;;;;;;8.30;100.00;100878.02;108960;1257;73538;-53
2024/04/12 02:18:14;;;;;;;1.10;0.40;;;;;;;8.30;100.00;100876.40;108999;1258;60667;-54
2024/04/12 02:20:44;;;;;;;1.10;0.50;;;;;;;8.23;100.00;100877.25;109031;1256;59557;-55
2024/04/12 02:23:13;;;;;;;0.80;0.40;;;;;;;8.15;100.00;100881.19;109018;1257;74749;-56
2024/04/12 02:25:41;;;;;;;2.70;0.40;;;;;;;8.07;100.00;100886.71;109038;1257;66881;-53
2024/04/12 02:28:09;;;;;;;1.30;0.40;;;;;;;8.00;100.00;100889.34;108991;1257;72536;-55
2024/04/12 02:30:41;;;;;;;4.20;0.40;;;;;;;7.93;100.00;100892.35;109101;1257;60790;-54
2024/04/12 02:33:15;;;;;;;1.00;0.50;;;;;;;7.85;100.00;100892.50;109045;1256;62505;-54
2024/04/12 02:35:45;;;;;;;2.50;0.50;;;;;;;7.79;100.00;100893.34;108837;1256;74430;-55
2024/04/12 02:38:16;;;;;;;0.80;0.40;;;;;;;7.73;100.00;100892.20;109128;1258;65989;-56
2024/04/12 02:40:43;;;;;;;2.30;0.40;;;;;;;7.67;100.00;100891.77;108957;1256;71674;-54
2024/04/12 02:43:10;;;;;;;1.20;0.40;;;;;;;7.63;100.00;100895.25;108975;1257;60285;-54
2024/04/12 02:45:37;;;;;;;0.60;0.40;;;;;;;7.59;100.00;100897.80;109005;1257;58991;-55
2024/04/12 02:48:04;;;;;;;1.30;0.40;;;;;;;7.55;100.00;100900.58;109009;1259;74474;-54
2024/04/12 02:50:31;;;;;;;1.10;0.30;;;;;;;7.54;100.00;100900.95;108995;1257;66931;-57
2024/04/12 02:53:03;;;;;;;3.00;0.40;;;;;;;7.56;100.00;100905.91;108963;1257;71254;-56
2024/04/12 02:55:30;;;;;;;4.00;0.60;;;;;;;7.59;100.00;100903.34;107026;1260;61638;-56
2024/04/12 02:57:57;;;;;;;1.10;0.50;;;;;;;7.64;100.00;100904.52;106357;1259;62006;-55
2024/04/12 03:00:25;;;;;;;1.70;0.40;;;;;;;7.66;100.00;100908.06;106000;1257;75314;-55
2024/04/12 03:02:52;;;;;;;1.00;0.30;;;;;;;7.69;100.00;100906.39;107121;1259;65867;-56
2024/04/12 03:05:20;;;;;;;5.20;0.60;;;;;;;7.71;100.00;100909.39;106222;1269;70882;-55
2024/04/12 03:07:46;;;;;;;1.20;0.50;;;;;;;7.73;100.00;100913.84;105972;1258;61380;-56
2024/04/12 03:10:18;;;;;;;4.90;0.50;;;;;;;7.69;100.00;100914.06;106075;1261;60930;-56
2024/04/12 03:12:51;;;;;;;2.50;0.60;;;;;;;7.63;100.00;100915.80;106162;1256;74562;-55
2024/04/12 03:15:20;;;;;;;1.50;0.50;;;;;;;7.56;100.00;100917.50;106001;1259;66017;-57
2024/04/12 03:17:47;;;;;;;3.00;0.60;;;;;;;7.49;100.00;100917.99;105971;1259;73829;-54
2024/04/12 03:20:20;;;;;;;3.90;0.70;;;;;;;7.43;100.00;100918.09;105892;1269;62142;-56
2024/04/12 03:22:47;;;;;;;2.80;0.60;;;;;;;7.41;100.00;100918.30;106013;1260;61343;-55
2024/04/12 03:25:15;;;;;;;0.80;0.50;;;;;;;7.39;100.00;100918.53;105962;1260;74972;-54
2024/04/12 03:27:42;;;;;;;2.50;0.50;;;;;;;7.39;100.00;100919.96;106531;1259;67571;-54
2024/04/12 03:30:15;;;;;;;1.60;0.40;;;;;;;7.38;100.00;100917.84;106187;1271;72631;-55
2024/04/12 03:32:45;;;;;;;1.20;0.50;;;;;;;7.39;100.00;100918.73;106057;1262;61270;-55
2024/04/12 03:35:14;;;;;;;2.60;0.50;;;;;;;7.41;100.00;100916.34;106319;1260;61317;-57
2024/04/12 03:37:47;;;;;;;1.30;0.50;;;;;;;7.47;100.00;100912.33;106790;1259;74578;-55
2024/04/12 03:40:17;;;;;;;1.10;0.90;;;;;;;7.50;100.00;100912.27;106093;1260;66941;-55
2024/04/12 03:42:44;;;;;;;3.40;0.60;;;;;;;7.53;100.00;100909.18;105977;1260;73125;-56
2024/04/12 03:45:14;;;;;;;2.60;0.70;;;;;;;7.57;100.00;100918.39;107025;1259;62178;-56
2024/04/12 03:47:44;;;;;;;4.20;0.70;;;;;;;7.59;100.00;100918.17;105916;1260;62201;-55
2024/04/12 03:50:14;;;;;;;3.10;0.60;;;;;;;7.61;100.00;100921.17;105976;1269;75368;-56
2024/04/12 03:52:41;;;;;;;1.30;0.80;;;;;;;7.64;100.00;100920.78;107089;1257;66756;-56
2024/04/12 03:55:11;;;;;;;2.30;0.90;;;;;;;7.67;100.00;100925.89;105922;1256;73651;-56
2024/04/12 03:57:38;;;;;;;3.70;0.90;;;;;;;7.70;100.00;100925.67;105986;1265;61381;-56
2024/04/12 04:00:12;;;;;;;2.90;0.60;;;;;;;7.73;100.00;100931.16;106262;1269;61459;-54
2024/04/12 04:02:39;;;;;;;;;;;;;;;7.76;100.00;100935.02;105955;1263;74789;-57
2024/04/12 04:05:16;;;;;;;0.80;0.60;;;;;;;7.77;100.00;100936.08;106017;1270;66072;-56
2024/04/12 04:07:45;;;;;;;3.40;0.70;;;;;;;7.79;100.00;100937.48;105952;1261;73124;-57
2024/04/12 04:10:15;;;;;;;2.70;0.60;;;;;;;7.86;100.00;100935.19;106034;1261;61337;-57
2024/04/12 04:12:49;;;;;;;1.30;0.50;;;;;;;8.00;100.00;100938.50;106129;1260;62441;-56
2024/04/12 04:15:16;;;;;;;1.80;0.50;;;;;;;8.21;100.00;100937.20;106065;1268;74518;-57
2024/04/12 04:17:49;;;;;;;1.60;0.60;;;;;;;8.48;100.00;100938.48;106261;1259;67359;-57
2024/04/12 04:20:17;;;;;;;2.80;0.60;;;;;;;8.79;100.00;100940.14;106428;1260;72433;-57
2024/04/12 04:22:49;;;;;;;1.10;0.70;;;;;;;9.11;100.00;100939.21;108900;1256;59062;-57
2024/04/12 04:25:19;;;;;;;3.60;0.70;;;;;;;9.41;100.00;100938.49;108922;1257;60376;-57
2024/04/12 04:27:46;;;;;;;1.20;0.60;;;;;;;9.70;100.00;100940.42;108973;1257;72719;-57
2024/04/12 04:30:17;;;;;;;2.80;0.80;;;;;;;10.03;100.00;100940.62;107960;1259;66982;-57
2024/04/12 04:32:45;;;;;;;2.10;0.80;;;;;;;10.35;100.00;100941.73;105965;1272;73182;-57
2024/04/12 04:35:13;;;;;;;1.40;0.90;;;;;;;10.65;100.00;100943.73;105938;1260;61852;-58
2024/04/12 04:37:40;;;;;;;7.40;0.80;;;;;;;10.94;100.00;100942.15;106573;1260;61349;-58
2024/04/12 04:40:16;;;;;;;1.80;1.00;;;;;;;11.22;100.00;100943.59;106221;1260;74590;-57
2024/04/12 04:42:45;;;;;;;1.30;0.70;;;;;;;11.45;100.00;100948.95;106544;1261;66342;-56
2024/04/12 04:45:17;;;;;;;4.40;0.70;;;;;;;11.61;100.00;100945.70;105868;1269;72995;-56
2024/04/12 04:47:44;;;;;;;2.30;0.60;;;;;;;11.66;100.00;100950.71;105990;1260;61247;-57
2024/04/12 04:50:16;;;;;;;2.40;0.80;;;;;;;11.67;100.00;100954.84;106598;1262;61151;-59
2024/04/12 04:52:44;;;;;;;2.10;0.60;;;;;;;11.63;100.00;100952.84;105953;1260;74713;-56
2024/04/12 04:55:13;;;;;;;5.80;0.70;;;;;;;11.58;100.00;100954.05;105972;1261;64727;-56
2024/04/12 04:57:43;;;;;;;4.60;0.60;;;;;;;11.52;100.00;100952.83;106399;1261;72592;-56
2024/04/12 05:00:18;;;;;;;2.20;0.50;;;;;;;11.47;100.00;100953.55;106219;1261;61317;-56
2024/04/12 05:02:53;;;;;;;;;;;;;;;11.43;100.00;100952.08;106175;1259;62124;-57
2024/04/12 05:05:27;;;;;;;2.50;0.50;;;;;;;11.42;100.00;100952.98;106257;1260;75036;-57
2024/04/12 05:07:56;;;;;;;10.40;0.60;;;;;;;11.41;100.00;100955.34;106382;1260;65823;-57
2024/04/12 05:10:24;;;;;;;2.90;0.50;;;;;;;11.40;100.00;100960.61;106289;1262;72710;-58
2024/04/12 05:12:53;;;;;;;2.80;0.60;;;;;;;11.40;100.00;100960.60;106764;1257;61128;-57
2024/04/12 05:18:20;;;;;;;3.70;0.50;;;;;;;11.41;100.00;100962.00;105721;1266;75079;-58
2024/04/12 05:20:47;;;;;;;2.20;0.70;;;;;;;11.42;100.00;100962.52;109082;1257;67212;-59
2024/04/12 05:23:20;;;;;;;2.00;0.50;;;;;;;11.44;100.00;100969.46;108948;1257;72562;-59
2024/04/12 05:25:48;;;;;;;4.60;0.50;;;;;;;11.46;100.00;100970.83;108970;1259;59534;-60
2024/04/12 05:28:15;;;;;;;5.30;0.60;;;;;;;11.49;100.00;100972.17;107428;1260;61122;-59
2024/04/12 05:30:45;;;;;;;2.20;0.50;;;;;;;11.53;100.00;100971.13;105973;1256;72461;-58
2024/04/12 05:33:12;;;;;;;3.70;0.60;;;;;;;11.57;100.00;100968.14;105989;1260;67918;-57
2024/04/12 05:35:40;;;;;;;7.40;0.80;;;;;;;11.60;100.00;100965.15;107186;1257;72338;-58
2024/04/12 05:38:10;;;;;;;3.20;0.70;;;;;;;11.63;100.00;100965.61;107361;1257;60073;-57
2024/04/12 05:40:45;;;;;;;2.80;0.50;;;;;;;11.68;100.00;100962.20;106018;1261;61209;-58
2024/04/12 05:43:15;;;;;;;2.00;0.40;;;;;;;11.74;100.00;100960.02;108720;1257;73404;-59
2024/04/12 05:45:53;;;;;;;4.10;0.60;;;;;;;11.81;100.00;100960.71;108005;1258;67087;-59
2024/04/12 05:48:24;;;;;;;3.00;0.50;;;;;;;11.87;100.00;100959.05;105960;1260;73427;-61
2024/04/12 05:50:53;;;;;;;1.50;0.60;;;;;;;11.91;100.00;100961.05;105850;1260;61220;-61
2024/04/12 05:53:23;;;;;;;7.10;0.60;;;;;;;11.95;100.00;100962.55;108880;1257;59304;-59
2024/04/12 05:56:20;;;;;;;2.40;0.50;;;;;;;11.98;100.00;100962.96;107128;1257;74091;-59
2024/04/12 05:58:40;;;;;;;3.40;0.60;;;;;;;12.04;100.00;100963.66;108775;1256;66898;-59
2024/04/12 06:01:07;;;;;;;4.10;0.50;;;;;;;12.09;100.00;100968.70;109014;1256;73119;-58
2024/04/12 06:03:42;;;;;;;2.60;0.50;;;;;;;12.16;100.00;100972.08;107002;1259;61054;-59
2024/04/12 06:06:12;;;;;;;3.50;1.00;;;;;;;12.24;100.00;100971.40;106307;1257;61219;-59
2024/04/12 06:08:41;;;;;;;1.90;0.60;;;;;;;12.31;100.00;100972.95;105995;1260;74460;-60
2024/04/12 06:11:09;;;;;;;2.90;0.50;;;;;;;12.38;100.00;100970.53;105997;1260;66928;-59
2024/04/12 06:13:38;;;;;;;1.60;0.70;;;;;;;12.47;100.00;100973.47;106632;1258;72495;-59
2024/04/12 06:16:05;;;;;;;2.10;0.60;;;;;;;12.55;100.00;100972.45;106213;1264;61306;-59
2024/04/12 06:18:32;;;;;;;4.40;0.60;;;;;;;12.61;100.00;100974.02;106438;1259;61455;-58
2024/04/12 06:21:01;;;;;;;2.60;0.50;;;;;;;12.68;100.00;100970.88;107207;1260;75359;-57
2024/04/12 06:23:29;;;;;;;4.00;0.50;;;;;;;12.75;100.00;100973.67;106209;1260;67100;-58
2024/04/12 06:25:58;;;;;;;4.00;0.90;;;;;;;12.81;100.00;100970.71;107269;1259;72608;-59
2024/04/12 06:28:26;;;;;;;1.80;0.50;;;;;;;12.87;100.00;100971.02;107945;1259;62157;-58
2024/04/12 06:30:56;;;;;;;1.10;0.40;;;;;;;12.94;100.00;100969.50;105996;1266;62175;-56
2024/04/12 06:33:23;;;;;;;3.30;0.50;;;;;;;13.01;100.00;100967.26;106360;1260;73527;-59
2024/04/12 06:35:52;;;;;;;2.90;0.60;;;;;;;13.08;100.00;100970.41;106204;1256;65894;-57
2024/04/12 06:38:23;;;;;;;2.20;0.60;;;;;;;13.15;100.00;100967.26;106066;1261;72392;-58
2024/04/12 06:40:53;;;;;;;2.20;0.70;;;;;;;13.22;100.00;100962.66;105870;1277;61327;-55
2024/04/12 06:43:20;;;;;;;4.30;0.50;;;;;;;13.29;100.00;100961.48;106409;1256;61362;-55
2024/04/12 06:45:57;;;;;;;2.90;0.60;;;;;;;13.33;100.00;100962.60;106561;1257;74225;-57
2024/04/12 06:48:26;;;;;;;4.20;0.50;;;;;;;13.38;100.00;100963.99;106441;1259;68266;-58
2024/04/12 06:50:59;;;;;;;4.60;0.50;;;;;;;13.47;100.00;100964.00;106641;1260;72707;-57
2024/04/12 06:53:26;;;;;;;2.10;0.60;;;;;;;13.56;100.00;100967.56;106344;1264;61134;-59
2024/04/12 06:55:57;;;;;;;1.30;0.50;;;;;;;13.65;100.00;100962.52;105964;1257;61343;-60
2024/04/12 06:58:25;;;;;;;2.10;0.60;;;;;;;13.75;100.00;100960.29;105963;1261;74659;-58
2024/04/12 07:00:56;;;;;;;2.60;0.60;;;;;;;13.85;100.00;100958.45;106110;1257;66643;-59
2024/04/12 07:03:23;;;;;;;4.30;0.70;;;;;;;13.90;100.00;100959.27;106495;1256;72728;-55
2024/04/12 07:05:53;;;;;;;4.00;0.60;;;;;;;13.96;100.00;100964.23;105975;1257;61656;-58
2024/04/12 07:08:26;;;;;;;1.90;0.80;;;;;;;14.02;100.00;100963.46;105932;1261;62149;-58
2024/04/12 07:10:54;;;;;;;2.50;0.60;;;;;;;14.10;100.00;100961.11;106080;1256;76041;-59
2024/04/12 07:13:21;;;;;;;4.30;0.50;;;;;;;14.19;100.00;100962.52;105931;1260;66353;-59
2024/04/12 07:15:51;;;;;;;2.30;0.50;;;;;;;14.29;100.00;100964.42;106176;1260;72302;-56
2024/04/12 07:18:22;;;;;;;2.10;0.40;;;;;;;14.35;100.00;100967.93;106281;1261;61335;-59
2024/04/12 07:20:49;;;;;;;4.10;0.60;;;;;;;14.39;100.00;100969.77;105994;1258;61041;-57
2024/04/12 07:23:16;;;;;;;5.50;0.70;;;;;;;14.47;100.00;100969.99;106374;1257;73366;-59
2024/04/12 07:25:45;;;;;;;3.40;0.50;;;;;;;14.52;100.00;100965.05;105981;1260;65609;-57
2024/04/12 07:28:13;;;;;;;4.20;0.70;;;;;;;14.59;100.00;100970.34;106410;1257;72253;-58
2024/04/12 07:30:52;;;;;;;2.40;0.50;;;;;;;14.64;100.00;100970.98;105926;1260;61311;-57
2024/04/12 07:33:24;;;;;;;7.10;0.80;;;;;;;14.65;100.00;100965.89;107005;1257;61256;-57
2024/04/12 07:35:51;;;;;;;7.00;0.60;;;;;;;14.63;100.00;100962.20;105938;1256;75057;-58
2024/04/12 07:38:21;;;;;;;5.70;0.60;;;;;;;14.62;100.00;100958.66;106106;1257;66447;-59
2024/04/12 07:40:52;;;;;;;2.50;0.50;;;;;;;14.63;100.00;100958.59;106605;1260;73851;-58
2024/04/12 07:43:19;;;;;;;5.10;0.50;;;;;;;14.69;100.00;100953.81;106189;1260;61253;-58
2024/04/12 07:45:47;;;;;;;3.40;0.50;;;;;;;14.78;100.00;100956.45;106061;1260;60361;-58
2024/04/12 07:50:53;;;;;;;2.30;0.60;;;;;;;14.97;100.00;100945.98;107288;1256;65626;-59
2024/04/12 07:56:08;;;;;;;0.90;0.50;;;;;;;15.14;100.00;100948.56;108261;1259;61375;-60
2024/04/12 07:58:36;;;;;;;1.60;0.50;;;;;;;15.22;100.00;100943.30;105986;1257;61366;-58
2024/04/12 08:01:15;;;;;;;3.20;0.50;;;;;;;15.29;100.00;100937.19;106244;1257;75701;-57
2024/04/12 08:03:43;;;;;;;3.90;1.10;;;;;;;15.37;100.00;100943.66;106238;1261;65340;-56
2024/04/12 08:06:19;;;;;;;3.20;0.60;;;;;;;15.39;100.00;100936.34;106223;1260;72670;-58
2024/04/12 08:08:46;;;;;;;6.40;0.50;;;;;;;15.34;100.00;100937.47;105961;1256;61315;-59
2024/04/12 08:11:34;;;;;;;2.50;0.50;;;;;;;15.32;100.00;100928.52;106104;1260;61346;-58
2024/04/12 08:14:07;;;;;;;1.00;0.40;;;;;;;15.36;100.00;100935.04;105991;1260;73549;-58
2024/04/12 08:16:36;;;;;;;3.40;0.40;;;;;;;15.43;100.00;100933.59;106182;1258;68272;-57
2024/04/12 08:19:21;;;;;;;3.10;0.50;;;;;;;15.46;100.00;100925.84;106058;1257;72474;-60
2024/04/12 08:21:49;;;;;;;4.40;0.50;;;;;;;15.49;100.00;100920.98;106202;1260;61417;-57
2024/04/12 08:24:22;;;;;;;2.00;0.50;;;;;;;15.55;100.00;100917.66;105996;1258;61297;-56
2024/04/12 08:26:52;;;;;;;3.20;0.40;;;;;;;15.60;100.00;100922.11;108850;1255;73563;-59
2024/04/12 08:29:23;;;;;;;1.80;0.40;;;;;;;15.64;100.00;100916.67;108969;1256;67217;-57
2024/04/12 08:31:59;;;;;;;3.80;0.50;;;;;;;15.66;100.00;100912.39;108914;1257;72990;-61
2024/04/12 08:34:31;;;;;;;2.90;0.50;;;;;;;15.69;100.00;100904.64;109027;1255;60191;-60
2024/04/12 08:37:02;;;;;;;2.00;0.50;;;;;;;15.76;100.00;100900.62;109092;1255;60312;-61
2024/04/12 08:39:30;;;;;;;5.30;0.50;;;;;;;15.81;100.00;100900.92;108930;1258;73090;-64
2024/04/12 08:41:59;;;;;;;2.70;0.60;;;;;;;15.84;100.00;100892.80;108957;1256;65146;-59
2024/04/12 08:44:29;;;;;;;1.40;0.40;;;;;;;15.90;100.00;100895.73;106479;1260;72740;-59
2024/04/12 08:47:15;;;;;;;3.80;0.50;;;;;;;15.95;100.00;100888.05;109052;1256;59249;-55
2024/04/12 08:49:45;;;;;;;2.20;0.50;;;;;;;15.96;100.00;100881.50;108978;1256;60201;-57
2024/04/12 08:52:31;;;;;;;2.30;0.40;;;;;;;16.00;100.00;100880.21;108826;1256;75168;-57
2024/04/12 08:55:01;;;;;;;2.10;0.60;;;;;;;16.07;100.00;100876.58;108916;1256;68302;-60
2024/04/12 08:57:33;;;;;;;4.60;0.60;;;;;;;16.11;100.00;100866.73;108770;1256;72569;-60
2024/04/12 09:00:00;;;;;;;3.00;0.50;;;;;;;16.14;100.00;100864.06;108987;1255;59433;-61
2024/04/12 09:02:29;;;;;;;1.80;0.40;;;;;;;16.13;100.00;100858.52;109009;1256;59494;-61
2024/04/12 09:04:57;;;;;;;4.80;0.90;;;;;;;16.15;100.00;100859.83;108879;1256;73112;-59
2024/04/12 09:07:24;;;;;;;2.10;0.40;;;;;;;16.21;100.00;100848.84;109051;1256;65795;-59
2024/04/12 09:09:52;;;;;;;2.80;0.40;;;;;;;16.26;100.00;100846.20;108693;1257;72615;-58
2024/04/12 09:12:24;;;;;;;2.00;0.40;;;;;;;16.36;100.00;100851.45;107330;1257;61126;-60
2024/04/12 09:14:54;;;;;;;2.60;0.50;;;;;;;16.42;100.00;100847.83;107280;1257;61904;-57
2024/04/12 09:17:28;;;;;;;1.80;0.40;;;;;;;16.48;100.00;100843.33;105974;1260;74469;-57
2024/04/12 09:19:58;;;;;;;1.80;0.20;;;;;;;16.54;100.00;100837.03;106979;1259;68588;-60
2024/04/12 09:24:58;;;;;;;1.40;0.40;;;;;;;16.63;100.00;100834.73;102664;1292;600786;-59
2024/04/12 09:27:34;;;;;;;1.90;0.40;;;;;;;16.62;100.00;100828.98;108020;1265;59009;-59
2024/04/12 09:32:50;;;;;;;3.70;0.50;;;;;;;16.67;100.00;100820.08;105291;1281;60162;-57
2024/04/12 09:32:51;;;;;;;1.70;0.50;;;;;;;16.71;100.00;100817.64;105390;1267;72661;-58
2024/04/12 09:35:19;;;;;;;1.50;0.50;;;;;;;16.73;100.00;100808.23;106437;1265;66789;-58
2024/04/12 09:37:54;;;;;;;2.60;0.40;;;;;;;16.80;100.00;100802.25;106270;1268;162351;-56
2024/04/12 09:40:28;;;;;;;1.80;0.30;;;;;;;16.87;100.00;100800.73;108530;1263;58131;-58
2024/04/12 09:45:45;;;;;;;1.90;0.50;;;;;;;16.98;100.00;100800.45;105315;1265;73201;-56
2024/04/12 10:39:11;;;;;;;1.00;0.30;;;;;;;17.67;100.00;100750.83;105821;1260;60491;-58
2024/04/12 10:41:45;;;;;;;1.00;0.40;;;;;;;17.67;100.00;100742.99;105936;1260;74553;-56
2024/04/12 10:44:13;;;;;;;1.60;0.40;;;;;;;17.72;100.00;100743.95;105882;1256;67309;-58
2024/04/12 10:46:40;;;;;;;2.90;0.50;;;;;;;17.74;100.00;100737.81;106432;1257;73590;-58
2024/04/12 10:49:09;;;;;;;2.20;0.40;;;;;;;17.73;100.00;100727.20;106401;1256;60446;-57
2024/04/12 10:51:39;;;;;;;1.60;0.30;;;;;;;17.74;100.00;100729.48;106444;1261;60620;-59
2024/04/12 10:54:10;;;;;;;4.10;0.70;;;;;;;17.76;100.00;100734.83;105941;1260;72672;-59
2024/04/12 10:56:53;;;;;;;1.70;0.70;;;;;;;17.79;100.00;100733.00;106106;1261;67521;-61
2024/04/12 10:59:30;;;;;;;1.50;0.50;;;;;;;17.80;100.00;100723.67;105836;1261;72715;-58
2024/04/12 11:01:57;;;;;;;2.30;0.40;;;;;;;17.80;100.00;100717.66;105842;1262;60755;-60
2024/04/12 11:04:28;;;;;;;4.20;0.40;;;;;;;17.83;100.00;100711.16;105937;1256;61336;-58
2024/04/12 11:06:58;;;;;;;2.50;0.40;;;;;;;17.86;100.00;100712.05;106351;1260;73830;-59
2024/04/12 11:09:30;;;;;;;2.30;0.40;;;;;;;17.91;100.00;100703.52;105791;1256;67939;-60
2024/04/12 11:12:09;;;;;;;1.50;0.30;;;;;;;17.95;100.00;100692.35;105644;1264;73639;-59
2024/04/12 11:14:38;;;;;;;0.70;0.40;;;;;;;18.01;100.00;100699.06;105861;1273;60708;-59
2024/04/12 11:31:14;;;;;;;4.00;0.30;;;;;;;18.24;100.00;100669.96;105852;1263;60418;-59
2024/04/12 11:33:45;;;;;;;3.40;0.40;;;;;;;18.23;100.00;100664.20;105847;1260;75776;-58
2024/04/12 11:36:20;;;;;;;2.20;0.40;;;;;;;18.21;100.00;100662.15;105774;1261;68079;-59
2024/04/12 11:38:49;;;;;;;0.90;0.40;;;;;;;18.18;100.00;100658.58;105778;1261;73802;-57
2024/04/12 11:41:16;;;;;;;5.10;0.60;;;;;;;18.12;100.00;100654.36;108772;1256;58942;-59
2024/04/12 11:43:45;;;;;;;0.80;0.30;;;;;;;18.10;100.00;100648.56;108853;1256;60323;-58
2024/04/12 11:46:16;;;;;;;0.60;0.30;;;;;;;18.11;100.00;100645.20;108827;1259;73720;-56
2024/04/12 11:48:43;;;;;;;1.80;0.40;;;;;;;18.15;100.00;100645.28;108822;1257;67580;-57
2024/04/12 11:51:15;;;;;;;2.10;0.30;;;;;;;18.20;100.00;100644.30;108795;1257;73383;-59
2024/04/12 11:53:46;;;;;;;1.50;0.40;;;;;;;18.22;100.00;100636.13;108886;1257;58355;-59
2024/04/12 11:56:13;;;;;;;2.10;0.70;;;;;;;18.24;100.00;100632.75;108853;1256;60366;-56
2024/04/12 11:58:43;;;;;;;4.60;0.40;;;;;;;18.28;100.00;100631.16;108832;1256;74326;-59
2024/04/12 12:01:10;;;;;;;0.90;0.30;;;;;;;18.37;100.00;100632.58;108787;1256;66163;-57
2024/04/12 12:03:37;;;;;;;4.00;0.50;;;;;;;18.44;100.00;100631.77;109002;1256;73639;-56
2024/04/12 12:06:06;;;;;;;1.90;0.40;;;;;;;18.49;100.00;100625.56;108712;1261;60304;-58
2024/04/12 12:08:40;;;;;;;4.80;0.30;;;;;;;18.52;100.00;100619.55;108829;1256;59007;-56
2024/04/12 12:11:10;;;;;;;1.30;0.40;;;;;;;18.55;100.00;100609.38;108834;1256;74573;-58
2024/04/12 12:13:37;;;;;;;1.20;0.30;;;;;;;18.54;100.00;100600.33;105941;1262;67311;-56
2024/04/12 12:16:06;;;;;;;1.80;0.40;;;;;;;18.54;100.00;100599.27;105923;1258;72117;-57
2024/04/12 12:18:35;;;;;;;1.20;0.40;;;;;;;18.54;100.00;100601.10;106334;1256;60777;-57
2024/04/12 12:21:03;;;;;;;1.60;0.40;;;;;;;18.53;100.00;100599.67;106086;1261;60381;-56
2024/04/12 12:23:30;;;;;;;1.50;0.40;;;;;;;18.53;100.00;100594.09;106175;1260;73774;-56
2024/04/12 12:25:58;;;;;;;1.30;0.40;;;;;;;18.49;100.00;100586.48;105874;1256;68584;-57
2024/04/12 12:28:26;;;;;;;0.30;0.20;;;;;;;18.48;100.00;100583.84;105872;1260;74678;-54
2024/04/12 12:30:57;;;;;;;4.40;0.40;;;;;;;18.48;100.00;100580.56;106009;1259;60518;-55
2024/04/12 12:33:24;;;;;;;1.80;0.30;;;;;;;18.48;100.00;100582.23;105988;1257;60452;-57
2024/04/12 12:35:54;;;;;;;1.70;0.30;;;;;;;18.46;100.00;100582.29;105715;1264;75176;-56
2024/04/12 12:38:21;;;;;;;2.30;0.30;;;;;;;18.43;100.00;100577.30;105945;1260;68144;-55
2024/04/12 12:40:48;;;;;;;0.70;0.20;;;;;;;18.40;100.00;100576.75;105863;1262;71342;-57
2024/04/12 12:43:15;;;;;;;0.80;0.30;;;;;;;18.40;100.00;100565.30;105897;1270;60578;-56
2024/04/12 12:45:41;;;;;;;0.50;0.30;;;;;;;18.43;100.00;100566.18;105850;1261;60637;-55